Weather at Vienna International Airport

Public forecast

Using degrees Celsius for public forecast. Weather courtesy of forecast.io.

Current aviation weather report (METAR) for Vienna International Airport

Retrieved 2022/05/23 08:20 UTC (20 minutes ago):

LOWW 230820Z 11012KT CAVOK 19/06 Q1012 NOSIG

Aviation forecast (TAF) for Vienna International Airport

Retrieved 2022/05/23 09:22 UTC (0 seconds ago):

TAF LOWW 230815Z 2309/2415 15012KT CAVOK TX24/2315Z TN16/2402Z PROB30 TEMPO 2400/2406 VRB15G25KT TSRA SCT030 SCT040CB PROB40 TEMPO 2406/2415 SHRA BKN030 FEW040CB